createdAt,value
2023-01-17T00:02:10.325Z,7.36
2023-01-17T00:04:55.831Z,7.36
2023-01-17T00:07:43.604Z,7.34
2023-01-17T00:10:22.056Z,7.34
2023-01-17T00:12:52.217Z,7.34
2023-01-17T00:15:20.156Z,7.35
2023-01-17T00:17:48.317Z,7.37
2023-01-17T00:20:36.770Z,7.39
2023-01-17T00:23:38.828Z,7.37
2023-01-17T00:26:19.521Z,7.37
2023-01-17T00:28:46.506Z,7.36
2023-01-17T00:31:16.134Z,7.36
2023-01-17T00:33:43.080Z,7.38
2023-01-17T00:36:10.955Z,7.39
2023-01-17T00:38:39.873Z,7.39
2023-01-17T00:41:10.823Z,7.38
2023-01-17T00:43:56.075Z,7.36
2023-01-17T00:46:41.910Z,7.34
2023-01-17T00:49:27.424Z,7.32
2023-01-17T00:52:13.172Z,7.30
2023-01-17T00:54:58.293Z,7.28
2023-01-17T00:57:43.478Z,7.24
2023-01-17T01:00:29.952Z,7.25
2023-01-17T01:03:15.372Z,7.22
2023-01-17T01:06:00.596Z,7.21
2023-01-17T01:08:48.129Z,7.22
2023-01-17T01:11:39.537Z,7.19
2023-01-17T01:14:28.929Z,7.20
2023-01-17T01:17:14.093Z,7.20
2023-01-17T01:19:59.456Z,7.24
2023-01-17T01:22:44.873Z,7.25
2023-01-17T01:25:30.404Z,7.27
2023-01-17T01:28:30.224Z,7.27
2023-01-17T01:31:22.457Z,7.28
2023-01-17T01:33:52.032Z,7.28
2023-01-17T01:36:19.048Z,7.31
2023-01-17T01:38:46.109Z,7.34
2023-01-17T01:41:12.891Z,7.36
2023-01-17T01:43:51.747Z,7.37
2023-01-17T01:46:22.872Z,7.37
2023-01-17T01:49:06.362Z,7.38
2023-01-17T01:51:42.503Z,7.38
2023-01-17T01:54:18.770Z,7.35
2023-01-17T01:56:49.057Z,7.29
2023-01-17T01:59:20.988Z,7.23
2023-01-17T02:01:51.403Z,7.19
2023-01-17T02:04:19.722Z,7.15
2023-01-17T02:06:55.384Z,7.10
2023-01-17T02:09:22.773Z,7.04
2023-01-17T02:11:50.112Z,6.97
2023-01-17T02:14:22.450Z,6.93
2023-01-17T02:17:17.947Z,6.86
2023-01-17T02:20:15.577Z,6.78
2023-01-17T02:23:26.737Z,6.70
2023-01-17T02:26:21.338Z,6.59
2023-01-17T02:29:33.027Z,6.53
2023-01-17T02:32:16.605Z,6.45
2023-01-17T02:35:07.796Z,6.41
2023-01-17T02:37:45.575Z,6.42
2023-01-17T02:40:41.926Z,6.41
2023-01-17T02:43:14.924Z,6.42
2023-01-17T02:45:42.698Z,6.43
2023-01-17T02:48:14.296Z,6.50
2023-01-17T02:51:08.767Z,6.50
2023-01-17T02:54:01.634Z,6.49
2023-01-17T02:57:06.452Z,6.52
2023-01-17T02:59:43.839Z,6.51
2023-01-17T03:03:00.988Z,6.55
2023-01-17T03:05:44.412Z,6.52
2023-01-17T03:08:12.834Z,6.55
2023-01-17T03:10:41.580Z,6.55
2023-01-17T03:13:08.679Z,6.57
2023-01-17T03:15:35.509Z,6.58
2023-01-17T03:18:12.729Z,6.58
2023-01-17T03:20:39.464Z,6.57
2023-01-17T03:23:06.470Z,6.55
2023-01-17T03:25:33.641Z,6.57
2023-01-17T03:28:00.392Z,6.55
2023-01-17T03:30:27.231Z,6.57
2023-01-17T03:32:53.989Z,6.60
2023-01-17T03:35:20.766Z,6.61
2023-01-17T03:37:47.502Z,6.65
2023-01-17T03:40:14.412Z,6.64
2023-01-17T03:42:41.236Z,6.63
2023-01-17T03:45:08.746Z,6.64
2023-01-17T03:47:36.363Z,6.63
2023-01-17T03:50:03.939Z,6.66
2023-01-17T03:52:30.684Z,6.65
2023-01-17T03:54:57.503Z,6.66
2023-01-17T03:57:24.325Z,6.67
2023-01-17T03:59:51.138Z,6.67
2023-01-17T04:02:18.156Z,6.70
2023-01-17T04:04:44.919Z,6.71
2023-01-17T04:07:11.664Z,6.73
2023-01-17T04:09:38.370Z,6.72
2023-01-17T04:12:05.238Z,6.72
2023-01-17T04:14:32.141Z,6.72
2023-01-17T04:16:59.856Z,6.71
2023-01-17T04:19:27.109Z,6.70
2023-01-17T04:21:53.808Z,6.69
2023-01-17T04:24:20.513Z,6.69
2023-01-17T04:26:47.223Z,6.67
2023-01-17T04:29:13.955Z,6.66
2023-01-17T04:31:40.798Z,6.64
2023-01-17T04:34:07.539Z,6.61
2023-01-17T04:36:34.283Z,6.60
2023-01-17T04:39:01.014Z,6.60
2023-01-17T04:41:27.755Z,6.61
2023-01-17T04:43:54.552Z,6.59
2023-01-17T04:46:21.357Z,6.56
2023-01-17T04:48:48.328Z,6.55
2023-01-17T04:51:15.051Z,6.54
2023-01-17T04:53:41.765Z,6.51
2023-01-17T04:56:08.455Z,6.48
2023-01-17T04:58:35.194Z,6.44
2023-01-17T05:01:08.393Z,6.43
2023-01-17T05:03:35.430Z,6.39
2023-01-17T05:06:03.340Z,6.40
2023-01-17T05:08:30.271Z,6.39
2023-01-17T05:10:57.003Z,6.36
2023-01-17T05:13:23.835Z,6.33
2023-01-17T05:15:50.794Z,6.32
2023-01-17T05:18:19.051Z,6.28
2023-01-17T05:20:46.000Z,6.24
2023-01-17T05:23:12.810Z,6.23
2023-01-17T05:25:44.381Z,6.20
2023-01-17T05:28:13.006Z,6.19
2023-01-17T05:30:40.046Z,6.17
2023-01-17T05:33:07.924Z,6.17
2023-01-17T05:35:34.822Z,6.18
2023-01-17T05:38:01.991Z,6.18
2023-01-17T05:40:31.961Z,6.19
2023-01-17T05:43:00.942Z,6.20
2023-01-17T05:45:30.183Z,6.18
2023-01-17T05:47:58.378Z,6.20
2023-01-17T05:50:30.422Z,6.19
2023-01-17T05:53:03.958Z,6.20
2023-01-17T05:55:32.836Z,6.18
2023-01-17T05:58:00.562Z,6.17
2023-01-17T06:00:28.793Z,6.14
2023-01-17T06:02:57.932Z,6.13
2023-01-17T06:05:25.862Z,6.11
2023-01-17T06:07:53.066Z,6.08
2023-01-17T06:10:22.135Z,6.08
2023-01-17T06:12:50.040Z,6.10
2023-01-17T06:15:18.632Z,6.11
2023-01-17T06:17:45.343Z,6.14
2023-01-17T06:20:13.242Z,6.16
2023-01-17T06:22:40.167Z,6.16
2023-01-17T06:25:07.387Z,6.17
2023-01-17T06:27:34.201Z,6.17
2023-01-17T06:30:01.070Z,6.14
2023-01-17T06:32:27.832Z,6.13
2023-01-17T06:34:54.722Z,6.13
2023-01-17T06:37:21.546Z,6.12
2023-01-17T06:39:48.943Z,6.12
2023-01-17T06:42:15.802Z,6.12
2023-01-17T06:44:42.535Z,6.12
2023-01-17T06:47:09.343Z,6.10
2023-01-17T06:49:36.257Z,6.09
2023-01-17T06:52:03.151Z,6.08
2023-01-17T06:54:29.888Z,6.07
2023-01-17T06:56:56.624Z,6.05
2023-01-17T06:59:23.472Z,6.04
2023-01-17T07:01:50.231Z,6.00
2023-01-17T07:04:16.974Z,5.97
2023-01-17T07:06:43.842Z,5.95
2023-01-17T07:09:10.570Z,5.93
2023-01-17T07:11:37.249Z,5.91
2023-01-17T07:14:03.980Z,5.89
2023-01-17T07:16:30.813Z,5.86
2023-01-17T07:18:58.041Z,5.84
2023-01-17T07:21:24.852Z,5.81
2023-01-17T07:23:51.598Z,5.77
2023-01-17T07:26:18.408Z,5.75
2023-01-17T07:28:45.172Z,5.72
2023-01-17T07:31:11.970Z,5.68
2023-01-17T07:33:38.682Z,5.67
2023-01-17T07:36:08.308Z,5.63
2023-01-17T07:38:35.435Z,5.62
2023-01-17T07:41:02.652Z,5.61
2023-01-17T07:43:29.445Z,5.60
2023-01-17T07:45:56.486Z,5.59
2023-01-17T07:48:24.771Z,5.58
2023-01-17T07:50:57.965Z,5.59
2023-01-17T07:53:27.253Z,5.59
2023-01-17T07:55:54.890Z,5.59
2023-01-17T07:58:22.385Z,5.61
2023-01-17T08:00:49.201Z,5.61
2023-01-17T08:03:17.849Z,5.62
2023-01-17T08:05:55.285Z,5.65
2023-01-17T08:08:22.058Z,5.67
2023-01-17T08:10:49.524Z,5.72
2023-01-17T08:13:16.277Z,5.75
2023-01-17T08:15:43.154Z,5.78
2023-01-17T08:18:09.931Z,5.83
2023-01-17T08:20:36.780Z,5.87
2023-01-17T08:23:03.491Z,5.94
2023-01-17T08:25:30.310Z,6.02
2023-01-17T08:27:58.456Z,6.22
2023-01-17T08:30:26.659Z,6.56
2023-01-17T08:32:54.116Z,7.06
2023-01-17T08:35:22.107Z,7.72
2023-01-17T08:37:54.023Z,8.49
2023-01-17T08:40:21.551Z,9.32
2023-01-17T08:43:00.030Z,10.28
2023-01-17T08:45:28.087Z,11.12
2023-01-17T08:47:54.879Z,11.88
2023-01-17T08:50:21.809Z,12.60
2023-01-17T08:52:50.063Z,13.25
2023-01-17T08:55:17.733Z,13.89
2023-01-17T08:57:44.463Z,14.50
2023-01-17T09:00:11.922Z,15.11
2023-01-17T09:02:38.680Z,15.66
2023-01-17T09:05:06.462Z,16.18
2023-01-17T09:07:33.241Z,16.68
2023-01-17T09:09:59.948Z,17.18
2023-01-17T09:12:26.907Z,17.71
2023-01-17T09:14:53.694Z,18.20
2023-01-17T09:17:20.403Z,18.72
2023-01-17T09:19:48.584Z,19.18
2023-01-17T09:22:15.579Z,19.63
2023-01-17T09:24:42.500Z,20.09
2023-01-17T09:27:09.269Z,20.54
2023-01-17T09:29:36.030Z,20.98
2023-01-17T09:32:03.382Z,21.40
2023-01-17T09:34:30.498Z,21.79
2023-01-17T09:36:57.482Z,22.20
2023-01-17T09:39:24.369Z,22.58
2023-01-17T09:42:10.790Z,22.95
2023-01-17T09:44:51.451Z,23.34
2023-01-17T09:47:45.755Z,23.72
2023-01-17T09:50:36.763Z,24.06
2023-01-17T09:53:14.639Z,24.35
2023-01-17T09:55:52.103Z,24.59
2023-01-17T09:58:49.471Z,24.76
2023-01-17T10:01:47.370Z,24.93
2023-01-17T10:04:45.105Z,25.11
2023-01-17T10:07:53.909Z,25.31
2023-01-17T10:10:41.209Z,25.55
2023-01-17T10:13:44.077Z,25.82
2023-01-17T10:16:48.813Z,26.14
2023-01-17T10:20:03.856Z,26.52
2023-01-17T10:22:51.187Z,26.86
2023-01-17T10:25:33.107Z,27.14
2023-01-17T10:28:28.552Z,27.32
2023-01-17T10:31:05.832Z,27.53
2023-01-17T10:33:55.251Z,27.68
2023-01-17T10:36:25.129Z,27.84
2023-01-17T10:39:00.431Z,27.98
2023-01-17T10:41:30.297Z,28.10
2023-01-17T10:44:18.480Z,28.17
2023-01-17T10:47:07.753Z,28.27
2023-01-17T10:49:34.517Z,28.34
2023-01-17T10:52:45.223Z,28.31
2023-01-17T10:55:47.675Z,28.34
2023-01-17T10:58:14.789Z,28.40
2023-01-17T11:01:12.709Z,28.41
2023-01-17T11:03:40.466Z,28.48
2023-01-17T11:06:25.865Z,28.48
2023-01-17T11:08:57.484Z,28.50
2023-01-17T11:11:32.509Z,28.48
2023-01-17T11:14:23.979Z,28.40
2023-01-17T11:17:06.853Z,28.32
2023-01-17T11:19:38.508Z,28.24
2023-01-17T11:22:07.478Z,28.10
2023-01-17T11:24:41.771Z,27.97
2023-01-17T11:27:28.416Z,27.79
2023-01-17T11:30:20.459Z,27.57
2023-01-17T11:32:59.228Z,27.43
2023-01-17T11:35:45.013Z,27.24
2023-01-17T11:38:24.068Z,27.13
2023-01-17T11:41:12.289Z,27.03
2023-01-17T11:43:57.526Z,26.87
2023-01-17T11:46:25.442Z,26.75
2023-01-17T11:49:00.941Z,26.47
2023-01-17T11:51:41.437Z,26.13
2023-01-17T11:54:30.041Z,25.72
2023-01-17T11:57:01.893Z,25.40
2023-01-17T11:59:43.050Z,25.02
2023-01-17T12:02:21.420Z,24.73
2023-01-17T12:05:20.364Z,24.35
2023-01-17T12:08:01.702Z,24.03
2023-01-17T12:10:52.316Z,23.70
2023-01-17T12:14:03.214Z,23.20
2023-01-17T12:17:07.289Z,22.69
2023-01-17T12:20:12.567Z,22.19
2023-01-17T12:23:17.730Z,21.69
2023-01-17T12:26:40.048Z,21.06
2023-01-17T12:29:46.328Z,20.51
2023-01-17T12:32:41.521Z,20.12
2023-01-17T12:35:15.294Z,19.85
2023-01-17T12:38:04.891Z,19.61
2023-01-17T12:41:09.257Z,19.42
2023-01-17T12:43:54.192Z,19.23
2023-01-17T12:47:01.516Z,19.06
2023-01-17T12:50:04.299Z,18.83
2023-01-17T12:52:47.929Z,18.56
2023-01-17T12:55:38.018Z,18.21
2023-01-17T12:58:33.238Z,17.84
2023-01-17T13:01:17.470Z,17.46
2023-01-17T13:04:23.427Z,17.11
2023-01-17T13:07:21.092Z,16.82
2023-01-17T13:10:07.834Z,16.53
2023-01-17T13:12:38.491Z,16.23
2023-01-17T13:15:28.266Z,15.84
2023-01-17T13:18:14.422Z,15.47
2023-01-17T13:21:32.162Z,15.09
2023-01-17T13:24:02.021Z,14.77
2023-01-17T13:26:55.559Z,14.44
2023-01-17T13:30:03.710Z,14.17
2023-01-17T13:33:20.042Z,13.89
2023-01-17T13:36:08.723Z,13.67
2023-01-17T13:38:55.111Z,13.50
2023-01-17T13:41:50.835Z,13.31
2023-01-17T13:44:24.362Z,13.17
2023-01-17T13:47:10.296Z,13.06
2023-01-17T13:49:56.035Z,12.94
2023-01-17T13:52:25.814Z,12.85
2023-01-17T13:54:59.094Z,12.78
2023-01-17T13:57:27.969Z,12.68
2023-01-17T14:00:22.669Z,12.61
2023-01-17T14:02:51.532Z,12.47
2023-01-17T14:05:42.418Z,12.40
2023-01-17T14:08:20.505Z,12.25
2023-01-17T14:11:06.870Z,12.09
2023-01-17T14:13:39.661Z,11.97
2023-01-17T14:16:21.188Z,11.83
2023-01-17T14:18:49.151Z,11.63
2023-01-17T14:21:31.985Z,11.41
2023-01-17T14:24:06.274Z,11.21
2023-01-17T14:26:44.003Z,11.03
2023-01-17T14:29:52.172Z,10.87
2023-01-17T14:32:33.030Z,10.69
2023-01-17T14:35:00.142Z,10.60
2023-01-17T14:37:52.107Z,10.51
2023-01-17T14:40:30.620Z,10.41
2023-01-17T14:43:13.772Z,10.26
2023-01-17T14:45:42.899Z,10.14
2023-01-17T14:48:21.432Z,10.01
2023-01-17T14:50:54.433Z,9.87
2023-01-17T14:53:33.195Z,9.75
2023-01-17T14:56:17.076Z,9.60
2023-01-17T14:58:46.442Z,9.51
2023-01-17T15:01:19.648Z,9.40
2023-01-17T15:03:51.212Z,9.32
2023-01-17T15:06:33.168Z,9.24
2023-01-17T15:09:00.987Z,9.16
2023-01-17T15:11:32.895Z,9.10
2023-01-17T15:14:05.701Z,9.07
2023-01-17T15:16:38.815Z,9.01
2023-01-17T15:19:14.715Z,8.97
2023-01-17T15:21:44.239Z,8.91
2023-01-17T15:24:27.620Z,8.86
2023-01-17T15:26:54.561Z,8.83
2023-01-17T15:29:34.312Z,8.80
2023-01-17T15:32:06.951Z,8.77
2023-01-17T15:34:44.478Z,8.74
2023-01-17T15:37:41.611Z,8.71
2023-01-17T15:40:23.521Z,8.66
2023-01-17T15:42:59.268Z,8.62
2023-01-17T15:45:30.787Z,8.61
2023-01-17T15:47:59.268Z,8.55
2023-01-17T15:50:31.080Z,8.52
2023-01-17T15:53:00.923Z,8.48
2023-01-17T15:55:39.607Z,8.42
2023-01-17T15:58:29.207Z,8.34
2023-01-17T16:00:56.659Z,8.27
2023-01-17T16:03:29.453Z,8.21
2023-01-17T16:06:00.435Z,8.13
2023-01-17T16:08:39.516Z,8.06
2023-01-17T16:11:08.282Z,7.99
2023-01-17T16:13:39.093Z,7.93
2023-01-17T16:16:24.462Z,7.86
2023-01-17T16:19:01.889Z,7.79
2023-01-17T16:21:31.395Z,7.71
2023-01-17T16:23:59.930Z,7.86
2023-01-17T16:26:28.956Z,7.91
2023-01-17T16:28:55.700Z,7.77
2023-01-17T16:31:22.747Z,7.68
2023-01-17T16:33:50.668Z,7.58
2023-01-17T16:36:17.796Z,7.49
2023-01-17T16:38:48.055Z,7.41
2023-01-17T16:41:14.822Z,7.34
2023-01-17T16:43:41.623Z,7.29
2023-01-17T16:46:11.959Z,7.22
2023-01-17T16:48:38.751Z,7.17
2023-01-17T16:51:07.168Z,7.11
2023-01-17T16:53:35.248Z,7.04
2023-01-17T16:56:11.852Z,6.99
2023-01-17T16:58:38.861Z,6.91
2023-01-17T17:01:17.687Z,6.84
2023-01-17T17:03:45.155Z,6.79
2023-01-17T17:06:12.956Z,6.74
2023-01-17T17:08:39.997Z,6.70
2023-01-17T17:11:15.029Z,6.65
2023-01-17T17:13:44.588Z,6.59
2023-01-17T17:16:18.933Z,6.55
2023-01-17T17:18:53.186Z,6.50
2023-01-17T17:21:20.180Z,6.46
2023-01-17T17:23:50.764Z,6.42
2023-01-17T17:26:18.463Z,6.39
2023-01-17T17:28:45.170Z,6.37
2023-01-17T17:31:12.091Z,6.33
2023-01-17T17:33:38.966Z,6.32
2023-01-17T17:36:09.927Z,6.28
2023-01-17T17:38:50.493Z,6.21
2023-01-17T17:41:24.100Z,6.12
2023-01-17T17:43:52.086Z,6.05
2023-01-17T17:46:21.554Z,5.98
2023-01-17T17:48:49.052Z,5.93
2023-01-17T17:51:30.709Z,5.92
2023-01-17T17:54:04.635Z,5.89
2023-01-17T17:56:32.721Z,5.85
2023-01-17T17:59:01.585Z,5.83
2023-01-17T18:01:28.712Z,5.82
2023-01-17T18:04:01.493Z,5.78
2023-01-17T18:06:28.571Z,5.75
2023-01-17T18:08:55.358Z,5.73
2023-01-17T18:11:27.168Z,5.68
2023-01-17T18:13:58.780Z,5.66
2023-01-17T18:16:36.806Z,5.62
2023-01-17T18:19:05.481Z,5.59
2023-01-17T18:21:38.211Z,5.56
2023-01-17T18:24:09.322Z,5.53
2023-01-17T18:26:40.227Z,5.50
2023-01-17T18:29:10.980Z,5.48
2023-01-17T18:31:38.285Z,5.45
2023-01-17T18:34:10.335Z,5.44
2023-01-17T18:36:38.096Z,5.41
2023-01-17T18:39:12.638Z,5.38
2023-01-17T18:41:39.465Z,5.34
2023-01-17T18:44:07.760Z,5.33
2023-01-17T18:46:35.617Z,5.31
2023-01-17T18:49:03.981Z,5.29
2023-01-17T18:51:33.351Z,5.26
2023-01-17T18:54:04.918Z,5.24
2023-01-17T18:56:36.639Z,5.22
2023-01-17T18:59:08.861Z,5.21
2023-01-17T19:01:36.538Z,5.19
2023-01-17T19:04:05.513Z,5.16
2023-01-17T19:06:39.393Z,5.14
2023-01-17T19:09:08.207Z,5.12
2023-01-17T19:11:36.635Z,5.11
2023-01-17T19:14:04.394Z,5.10
2023-01-17T19:16:36.105Z,5.09
2023-01-17T19:19:06.983Z,5.08
2023-01-17T19:21:34.561Z,5.09
2023-01-17T19:24:01.770Z,5.08
2023-01-17T19:26:29.907Z,5.06
2023-01-17T19:29:03.579Z,5.06
2023-01-17T19:31:34.455Z,5.05
2023-01-17T19:34:01.225Z,5.01
2023-01-17T19:36:38.564Z,4.98
2023-01-17T19:39:09.471Z,4.96
2023-01-17T19:41:42.624Z,4.93
2023-01-17T19:44:12.281Z,4.91
2023-01-17T19:46:39.117Z,4.90
2023-01-17T19:49:09.450Z,4.87
2023-01-17T19:51:41.966Z,4.86
2023-01-17T19:55:52.681Z,4.82
2023-01-17T20:02:28.415Z,4.69
2023-01-17T20:05:09.852Z,4.69
2023-01-17T20:07:45.489Z,4.69
2023-01-17T20:10:12.467Z,4.68
2023-01-17T20:12:52.383Z,4.67
2023-01-17T20:15:34.920Z,4.68
2023-01-17T20:18:02.534Z,4.67
2023-01-17T20:20:32.470Z,4.66
2023-01-17T20:23:01.179Z,4.68
2023-01-17T20:25:27.960Z,4.66
2023-01-17T20:27:55.395Z,4.69
2023-01-17T20:30:26.131Z,4.69
2023-01-17T20:32:52.879Z,4.71
2023-01-17T20:35:19.670Z,4.72
2023-01-17T20:37:46.379Z,4.73
2023-01-17T20:40:13.412Z,4.73
2023-01-17T20:42:40.131Z,4.72
2023-01-17T20:45:08.834Z,4.70
2023-01-17T20:47:35.592Z,4.70
2023-01-17T20:50:03.878Z,4.67
2023-01-17T20:52:30.655Z,4.66
2023-01-17T20:54:57.365Z,4.65
2023-01-17T20:57:24.076Z,4.64
2023-01-17T20:59:50.818Z,4.62
2023-01-17T21:02:17.644Z,4.60
2023-01-17T21:04:45.322Z,4.56
2023-01-17T21:07:12.206Z,4.55
2023-01-17T21:09:38.986Z,4.52
2023-01-17T21:12:05.814Z,4.51
2023-01-17T21:14:32.581Z,4.50
2023-01-17T21:16:59.444Z,4.47
2023-01-17T21:19:26.592Z,4.44
2023-01-17T21:21:53.470Z,4.42
2023-01-17T21:24:20.248Z,4.39
2023-01-17T21:26:47.181Z,4.38
2023-01-17T21:29:15.802Z,4.36
2023-01-17T21:31:42.679Z,4.34
2023-01-17T21:34:13.541Z,4.32
2023-01-17T21:36:42.228Z,4.30
2023-01-17T21:39:18.734Z,4.28
2023-01-17T21:41:50.553Z,4.25
2023-01-17T21:44:20.265Z,4.23
2023-01-17T21:46:48.104Z,4.21
2023-01-17T21:49:15.310Z,4.19
2023-01-17T21:51:55.305Z,4.17
2023-01-17T21:54:47.149Z,4.12
2023-01-17T21:57:38.853Z,4.09
2023-01-17T22:00:10.183Z,4.04
2023-01-17T22:02:36.971Z,4.04
2023-01-17T22:05:04.033Z,4.02
2023-01-17T22:07:30.806Z,4.00
2023-01-17T22:09:57.552Z,3.99
2023-01-17T22:12:24.810Z,3.98
2023-01-17T22:14:52.647Z,3.97
2023-01-17T22:17:20.901Z,3.95
2023-01-17T22:19:47.794Z,3.94
2023-01-17T22:22:14.675Z,3.95
2023-01-17T22:24:41.433Z,3.95
2023-01-17T22:27:10.874Z,3.95
2023-01-17T22:29:37.933Z,3.94
2023-01-17T22:32:05.147Z,3.92
2023-01-17T22:34:31.963Z,3.92
2023-01-17T22:36:58.681Z,3.92
2023-01-17T22:39:25.471Z,3.89
2023-01-17T22:41:52.237Z,3.88
2023-01-17T22:44:18.977Z,3.85
2023-01-17T22:46:45.824Z,3.83
2023-01-17T22:49:13.899Z,3.80
2023-01-17T22:51:40.637Z,3.77
2023-01-17T22:54:07.455Z,3.75
2023-01-17T22:56:34.318Z,3.74
2023-01-17T22:59:02.295Z,3.73
2023-01-17T23:01:32.792Z,3.72
2023-01-17T23:04:03.251Z,3.71
2023-01-17T23:06:39.418Z,3.71
2023-01-17T23:09:15.135Z,3.68
2023-01-17T23:11:47.101Z,3.67
2023-01-17T23:14:25.531Z,3.66
2023-01-17T23:17:20.508Z,3.66
2023-01-17T23:19:54.384Z,3.63
2023-01-17T23:22:27.826Z,3.62
2023-01-17T23:25:06.982Z,3.64
2023-01-17T23:28:02.267Z,3.62
2023-01-17T23:30:39.394Z,3.59
2023-01-17T23:33:16.980Z,3.59
2023-01-17T23:35:46.426Z,3.58
2023-01-17T23:38:33.528Z,3.57
2023-01-17T23:41:26.067Z,3.55
2023-01-17T23:43:55.694Z,3.51
2023-01-17T23:46:25.206Z,3.51
2023-01-17T23:48:52.237Z,3.51
2023-01-17T23:51:19.048Z,3.49
2023-01-17T23:53:45.818Z,3.51
2023-01-17T23:56:23.038Z,3.49
2023-01-17T23:58:49.843Z,3.48
